Ever Fortune — V3WZ5 — position and weather

sailwx.info

Track history (hours):
 
Tides and Currents Weather Stations Pressure Air Temp Water Temp Dewpoint Dewpoint Depression Visibility Wind Speed Wind Dir Waves Ship Positions

Ever Fortune

Last reported at 2018-Jan-19 00:22 UTC. Time now 2018-Jan-19 07:31 UTC.
Position N 30°60' E 122°21'.

Length 83 m; draft 6 m.

Type: Cargo ship. MMSI: 312423000.

Date/timePositionNaut miles runAvg speedWind from/ knotsBaromVisibWave heightAir tempDewpointWater temp
2018-Jan-19 00:22N 30°60' E 122°21'0 0.0
2018-Jan-18 23:58N 30°60' E 122°21'0 0.0
2018-Jan-18 21:46N 30°60' E 122°22'0 0.0
2018-Jan-18 21:28N 30°60' E 122°22'0 0.0
2018-Jan-18 20:58N 30°60' E 122°22'0 0.0
2018-Jan-18 20:28N 30°60' E 122°22'0 0.0
2018-Jan-18 16:33N 30°60' E 122°22'  
2018-Jan-12 14:47N 31°03' E 122°13'3 9.6
2018-Jan-12 14:30N 31°03' E 122°10'6 9.3
2018-Jan-12 13:53N 31°04' E 122°03'3 8.2
2018-Jan-12 13:29N 31°06' E 121°60'4 7.9
2018-Jan-12 12:59N 31°07' E 121°55'30 7.8
2018-Jan-12 09:08N 31°27' E 121°29'2 9.4
2018-Jan-12 08:54N 31°28' E 121°27'410.4
2018-Jan-12 08:30N 31°31' E 121°23'510.1
2018-Jan-12 08:00N 31°34' E 121°19'510.6
2018-Jan-12 07:30N 31°38' E 121°15'1 2.1
2018-Jan-12 07:00N 31°39' E 121°13'0 0.0
2018-Jan-12 06:27N 31°39' E 121°13'0 0.1
2018-Jan-12 06:00N 31°39' E 121°13'0 0.1
2018-Jan-12 05:28N 31°39' E 121°13'0 0.1
2018-Jan-12 04:54N 31°39' E 121°13'0 0.0
2018-Jan-12 04:30N 31°39' E 121°13'0 0.0
2018-Jan-12 04:00N 31°39' E 121°13'0 0.0
2018-Jan-12 03:30N 31°39' E 121°13'0 0.0
2018-Jan-12 02:57N 31°39' E 121°13'0 0.1
2018-Jan-12 02:30N 31°39' E 121°13'0 0.1
2018-Jan-12 02:00N 31°39' E 121°13'0 0.0
2018-Jan-12 01:30N 31°39' E 121°13'0 0.0
2018-Jan-12 00:48N 31°39' E 121°13'0 0.2
2018-Jan-12 00:30N 31°39' E 121°13'0 0.1
2018-Jan-11 23:48N 31°39' E 121°13'0 0.0
2018-Jan-11 23:24N 31°39' E 121°13'0 0.0
2018-Jan-11 23:00N 31°39' E 121°13'0 0.0
2018-Jan-11 22:24N 31°39' E 121°13'0 0.0
2018-Jan-11 22:00N 31°39' E 121°13'0 0.0
2018-Jan-11 21:30N 31°39' E 121°13'0 0.0
2018-Jan-11 21:00N 31°39' E 121°13'0 0.0
2018-Jan-11 20:30N 31°39' E 121°13'0 0.0
2018-Jan-11 20:00N 31°39' E 121°13'0 0.0
2018-Jan-11 19:30N 31°39' E 121°13'0 0.0
2018-Jan-11 19:00N 31°39' E 121°13'0 0.0
2018-Jan-11 18:30N 31°39' E 121°13'0 0.0
2018-Jan-11 17:54N 31°39' E 121°13'0 0.0
2018-Jan-11 17:27N 31°39' E 121°13'0 0.1
2018-Jan-11 17:00N 31°39' E 121°13'0 0.1
2018-Jan-11 16:12N 31°39' E 121°13'0 0.0
2018-Jan-11 15:30N 31°39' E 121°13'0 0.4
2018-Jan-11 15:01N 31°39' E 121°14'2 4.5
2018-Jan-11 14:30N 31°37' E 121°16'4 8.0
2018-Jan-11 14:00N 31°34' E 121°19'4 8.1
2018-Jan-11 13:30N 31°32' E 121°23'4 8.4
2018-Jan-11 13:00N 31°29' E 121°26'37 8.4
2018-Jan-11 08:34N 31°06' E 122°00'1 7.9
2018-Jan-11 08:28N 31°05' E 122°01'4 7.9
2018-Jan-11 07:55N 31°04' E 122°06'4 8.5
2018-Jan-11 07:28N 31°03' E 122°10'9 7.5
2018-Jan-11 06:17N 31°02' E 122°20'  
Track history (hours):
 
Tides and Currents Weather Stations Pressure Air Temp Water Temp Dewpoint Dewpoint Depression Visibility Wind Speed Wind Dir Waves Ship Positions

Ever Fortune

Last reported at 2018-Jan-19 00:22 UTC. Time now 2018-Jan-19 07:31 UTC.
Position N 30°60' E 122°21'.

Length 83 m; draft 6 m.

Type: Cargo ship. MMSI: 312423000.

Date/timePositionNaut miles runAvg speedWind from/ knotsBaromVisibWave heightAir tempDewpointWater temp
2018-Jan-19 00:22N 30°60' E 122°21'0 0.0
2018-Jan-18 23:58N 30°60' E 122°21'0 0.0
2018-Jan-18 21:46N 30°60' E 122°22'0 0.0
2018-Jan-18 21:28N 30°60' E 122°22'0 0.0
2018-Jan-18 20:58N 30°60' E 122°22'0 0.0
2018-Jan-18 20:28N 30°60' E 122°22'0 0.0
2018-Jan-18 16:33N 30°60' E 122°22'  
2018-Jan-12 14:47N 31°03' E 122°13'3 9.6
2018-Jan-12 14:30N 31°03' E 122°10'6 9.3
2018-Jan-12 13:53N 31°04' E 122°03'3 8.2
2018-Jan-12 13:29N 31°06' E 121°60'4 7.9
2018-Jan-12 12:59N 31°07' E 121°55'30 7.8
2018-Jan-12 09:08N 31°27' E 121°29'2 9.4
2018-Jan-12 08:54N 31°28' E 121°27'410.4
2018-Jan-12 08:30N 31°31' E 121°23'510.1
2018-Jan-12 08:00N 31°34' E 121°19'510.6
2018-Jan-12 07:30N 31°38' E 121°15'1 2.1
2018-Jan-12 07:00N 31°39' E 121°13'0 0.0
2018-Jan-12 06:27N 31°39' E 121°13'0 0.1
2018-Jan-12 06:00N 31°39' E 121°13'0 0.1
2018-Jan-12 05:28N 31°39' E 121°13'0 0.1
2018-Jan-12 04:54N 31°39' E 121°13'0 0.0
2018-Jan-12 04:30N 31°39' E 121°13'0 0.0
2018-Jan-12 04:00N 31°39' E 121°13'0 0.0
2018-Jan-12 03:30N 31°39' E 121°13'0 0.0
2018-Jan-12 02:57N 31°39' E 121°13'0 0.1
2018-Jan-12 02:30N 31°39' E 121°13'0 0.1
2018-Jan-12 02:00N 31°39' E 121°13'0 0.0
2018-Jan-12 01:30N 31°39' E 121°13'0 0.0
2018-Jan-12 00:48N 31°39' E 121°13'0 0.2
2018-Jan-12 00:30N 31°39' E 121°13'0 0.1
2018-Jan-11 23:48N 31°39' E 121°13'0 0.0
2018-Jan-11 23:24N 31°39' E 121°13'0 0.0
2018-Jan-11 23:00N 31°39' E 121°13'0 0.0
2018-Jan-11 22:24N 31°39' E 121°13'0 0.0
2018-Jan-11 22:00N 31°39' E 121°13'0 0.0
2018-Jan-11 21:30N 31°39' E 121°13'0 0.0
2018-Jan-11 21:00N 31°39' E 121°13'0 0.0
2018-Jan-11 20:30N 31°39' E 121°13'0 0.0
2018-Jan-11 20:00N 31°39' E 121°13'0 0.0
2018-Jan-11 19:30N 31°39' E 121°13'0 0.0
2018-Jan-11 19:00N 31°39' E 121°13'0 0.0
2018-Jan-11 18:30N 31°39' E 121°13'0 0.0
2018-Jan-11 17:54N 31°39' E 121°13'0 0.0
2018-Jan-11 17:27N 31°39' E 121°13'0 0.1
2018-Jan-11 17:00N 31°39' E 121°13'0 0.1
2018-Jan-11 16:12N 31°39' E 121°13'0 0.0
2018-Jan-11 15:30N 31°39' E 121°13'0 0.4
2018-Jan-11 15:01N 31°39' E 121°14'2 4.5
2018-Jan-11 14:30N 31°37' E 121°16'4 8.0
2018-Jan-11 14:00N 31°34' E 121°19'4 8.1
2018-Jan-11 13:30N 31°32' E 121°23'4 8.4
2018-Jan-11 13:00N 31°29' E 121°26'37 8.4
2018-Jan-11 08:34N 31°06' E 122°00'1 7.9
2018-Jan-11 08:28N 31°05' E 122°01'4 7.9
2018-Jan-11 07:55N 31°04' E 122°06'4 8.5
2018-Jan-11 07:28N 31°03' E 122°10'9 7.5
2018-Jan-11 06:17N 31°02' E 122°20'  

Dump ship's entire track history